Time;durP1;ratioP1;P1;durP2;ratioP2;P2;SDS_P1;SDS_P2;PMS_P1;PMS_P2;Temp;Humidity;BMP_temperature;BMP_pressure;BME280_temperature;BME280_humidity;BME280_pressure;Samples;Min_cycle;Max_cycle;Signal;HPM_P1;HPM_P2
2022/12/21 03:04:52;;;;;;;35.13;17.10;;;;;;;0.80;100.00;100486.53;1837617;76;22712;-95
2022/12/21 03:07:30;;;;;;;31.82;15.32;;;;;;;3.75;84.02;100470.34;1757772;77;89871;-62
2022/12/21 03:10:26;;;;;;;38.28;17.45;;;;;;;4.43;79.64;100481.75;1773760;80;20994;-63
2022/12/21 03:13:37;;;;;;;42.27;19.90;;;;;;;4.91;74.69;100482.28;1773568;80;21025;-62
2022/12/21 03:16:44;;;;;;;35.63;16.97;;;;;;;5.45;72.74;100483.52;1750629;81;21006;-63
2022/12/21 03:19:36;;;;;;;26.57;12.50;;;;;;;5.87;70.38;100475.21;1755000;81;21050;-66
2022/12/21 03:22:07;;;;;;;33.73;16.27;;;;;;;6.18;68.20;100466.99;1754719;81;21117;-62
2022/12/21 03:24:48;;;;;;;;;;;;;;;6.63;66.24;100468.53;1757785;81;21140;-62
2022/12/21 03:27:21;;;;;;;40.23;19.12;;;;;;;6.96;64.74;100472.80;1748027;81;20159;-62
2022/12/21 03:29:56;;;;;;;40.63;20.70;;;;;;;7.02;63.65;100464.85;1748666;82;21589;-63
2022/12/21 03:32:31;;;;;;;36.23;18.45;;;;;;;7.21;62.68;100463.63;1748410;81;21052;-62
2022/12/21 03:34:58;;;;;;;39.18;19.82;;;;;;;7.31;62.61;100465.17;1754458;81;21562;-62
2022/12/21 03:37:28;;;;;;;33.48;16.17;;;;;;;7.71;61.28;100465.74;1754752;81;22087;-63
2022/12/21 03:40:00;;;;;;;32.95;16.80;;;;;;;7.60;61.15;100468.16;1754740;81;21049;-63
2022/12/21 03:42:33;;;;;;;41.35;20.72;;;;;;;7.48;60.97;100469.27;1754460;81;22178;-62
2022/12/21 03:45:07;;;;;;;44.42;21.23;;;;;;;7.33;60.96;100463.39;1754974;81;21042;-62
2022/12/21 03:48:14;;;;;;;37.28;19.02;;;;;;;7.56;61.00;100450.31;1754317;81;21074;-63
2022/12/21 03:50:45;;;;;;;41.33;19.70;;;;;;;7.48;60.73;100441.75;1754978;81;21565;-62
2022/12/21 03:53:39;;;;;;;42.13;20.25;;;;;;;7.45;60.24;100439.17;1755055;81;21037;-63
2022/12/21 03:56:07;;;;;;;44.93;22.82;;;;;;;7.42;59.55;100439.23;1755291;81;21011;-62
2022/12/21 03:58:34;;;;;;;42.33;21.00;;;;;;;7.57;58.98;100435.02;1754899;81;21045;-62
2022/12/21 04:01:06;;;;;;;44.40;19.75;;;;;;;7.83;58.63;100432.31;1755127;81;21636;-63
2022/12/21 04:03:35;;;;;;;48.63;24.00;;;;;;;8.01;58.27;100430.61;1754565;81;21808;-64
2022/12/21 04:06:09;;;;;;;49.27;23.75;;;;;;;7.91;57.61;100432.99;1719002;83;22133;-64
2022/12/21 04:08:36;;;;;;;45.20;21.85;;;;;;;8.18;56.78;100431.08;1717024;83;21020;-62
2022/12/21 04:11:05;;;;;;;52.15;24.12;;;;;;;8.34;56.96;100434.68;1716193;83;21087;-63
2022/12/21 04:13:34;;;;;;;49.80;23.92;;;;;;;7.90;56.60;100433.45;1716322;83;21079;-63
2022/12/21 04:16:03;;;;;;;47.78;21.75;;;;;;;6.91;59.40;100427.91;1717218;83;21135;-63
2022/12/21 04:21:19;;;;;;;46.23;22.35;;;;;;;6.68;60.12;100423.52;1717420;83;21023;-63
2022/12/21 04:29:14;;;;;;;42.88;21.27;;;;;;;6.57;60.03;100407.13;1643547;87;22210;-62
2022/12/21 04:31:40;;;;;;;37.38;18.65;;;;;;;7.06;60.20;100410.20;1692682;83;21091;-62
2022/12/21 04:34:07;;;;;;;34.25;17.87;;;;;;;7.20;59.28;100417.38;1717255;83;21024;-63
2022/12/21 04:39:19;;;;;;;38.88;17.85;;;;;;;7.44;58.41;100407.32;1717231;83;21023;-63
2022/12/21 04:41:45;;;;;;;36.25;17.45;;;;;;;6.68;59.30;100415.67;1717021;83;21139;-63
2022/12/21 04:44:12;;;;;;;31.23;15.98;;;;;;;7.27;57.98;100406.31;1717306;83;21015;-63
2022/12/21 04:46:39;;;;;;;36.80;18.00;;;;;;;6.78;59.13;100414.61;1717038;83;21019;-62
2022/12/21 04:49:06;;;;;;;40.43;16.70;;;;;;;7.07;57.42;100410.64;1717075;83;21040;-63
2022/12/21 04:51:33;;;;;;;32.83;16.35;;;;;;;7.01;57.92;100412.90;1717416;83;21027;-63
2022/12/21 04:54:03;;;;;;;31.48;16.62;;;;;;;7.29;56.80;100402.80;1717049;83;21229;-63
2022/12/21 04:56:29;;;;;;;31.27;16.62;;;;;;;6.65;57.96;100411.80;1717218;83;21035;-64
2022/12/21 04:58:56;;;;;;;35.50;16.00;;;;;;;7.14;58.40;100413.11;1716977;83;21082;-64
2022/12/21 05:01:22;;;;;;;33.85;18.35;;;;;;;7.30;57.38;100408.44;1717130;83;21007;-63
2022/12/21 05:03:50;;;;;;;35.60;18.40;;;;;;;6.96;58.51;100409.96;1716981;83;21119;-63
2022/12/21 05:06:18;;;;;;;38.80;20.23;;;;;;;6.69;58.79;100407.80;1717537;83;21061;-63
2022/12/21 05:08:44;;;;;;;35.20;19.35;;;;;;;6.82;58.55;100407.13;1719015;83;21019;-64
2022/12/21 05:11:19;;;;;;;43.60;21.15;;;;;;;6.22;60.44;100417.69;1751864;81;21048;-63
2022/12/21 05:13:46;;;;;;;46.60;22.35;;;;;;;6.71;59.29;100407.75;1702250;84;21024;-63
2022/12/21 05:16:20;;;;;;;42.00;20.12;;;;;;;7.27;58.25;100411.13;1750226;82;21599;-63
2022/12/21 05:18:52;;;;;;;44.67;22.07;;;;;;;7.22;58.41;100410.33;1731818;82;21160;-63
2022/12/21 05:21:18;;;;;;;43.05;20.80;;;;;;;6.71;59.19;100426.08;1750624;81;21030;-63
2022/12/21 05:23:45;;;;;;;42.83;19.85;;;;;;;6.39;61.07;100433.98;1732596;82;21087;-62
2022/12/21 05:26:12;;;;;;;52.03;24.60;;;;;;;6.67;60.65;100429.63;1750544;82;21605;-63
2022/12/21 05:28:39;;;;;;;39.15;19.55;;;;;;;6.67;60.22;100432.24;1732552;82;21087;-62
2022/12/21 05:31:06;;;;;;;40.85;21.23;;;;;;;6.66;61.09;100437.07;1750443;82;21660;-63
2022/12/21 05:33:34;;;;;;;47.67;23.40;;;;;;;6.87;59.84;100419.69;1732401;82;21060;-63
2022/12/21 05:36:03;;;;;;;52.58;23.75;;;;;;;6.58;61.15;100431.08;1732624;82;22093;-63
2022/12/21 05:38:29;;;;;;;59.88;26.82;;;;;;;6.88;60.34;100441.52;1750565;81;21093;-63
2022/12/21 05:40:56;;;;;;;49.48;25.48;;;;;;;7.30;59.53;100434.64;1732400;82;21511;-62
2022/12/21 05:43:22;;;;;;;45.35;20.75;;;;;;;7.38;59.99;100437.56;1750401;81;21196;-63
2022/12/21 05:45:49;;;;;;;53.35;24.60;;;;;;;6.85;60.38;100441.55;1732386;82;21051;-62
2022/12/21 05:48:16;;;;;;;50.50;22.15;;;;;;;6.68;61.33;100432.68;1732444;82;21075;-63
2022/12/21 05:50:42;;;;;;;55.35;25.37;;;;;;;6.47;61.98;100437.36;1750614;81;21044;-62
2022/12/21 05:53:09;;;;;;;49.08;23.30;;;;;;;6.97;59.87;100429.58;1732586;82;21102;-63
2022/12/21 05:55:36;;;;;;;41.55;20.57;;;;;;;6.82;60.35;100428.08;1732470;82;21518;-63
2022/12/21 05:58:03;;;;;;;50.12;23.83;;;;;;;7.04;59.62;100432.92;1750047;81;21044;-63
2022/12/21 06:00:30;;;;;;;53.08;22.93;;;;;;;6.84;59.70;100429.37;1717317;83;21053;-63
2022/12/21 06:02:57;;;;;;;58.10;25.77;;;;;;;6.72;60.82;100427.83;1717115;83;21041;-63
2022/12/21 06:05:23;;;;;;;50.48;24.50;;;;;;;6.73;59.66;100424.30;1717426;83;21108;-62
2022/12/21 06:07:50;;;;;;;60.85;25.75;;;;;;;6.93;59.88;100427.90;1717555;83;21218;-62
2022/12/21 06:10:17;;;;;;;68.05;29.75;;;;;;;7.06;59.64;100431.15;1718652;83;21092;-63
2022/12/21 06:12:43;;;;;;;70.12;30.27;;;;;;;6.78;60.27;100429.46;1718756;83;21050;-62
2022/12/21 06:15:10;;;;;;;76.12;32.67;;;;;;;7.04;60.13;100432.92;1741721;82;21142;-64
2022/12/21 06:17:37;;;;;;;71.50;31.87;;;;;;;6.77;59.94;100433.84;1748359;82;21017;-63
2022/12/21 06:20:06;;;;;;;69.20;30.50;;;;;;;6.57;60.82;100438.08;1748596;81;21338;-63
2022/12/21 06:22:40;;;;;;;63.78;30.15;;;;;;;6.82;60.44;100439.85;1748988;81;21044;-64
2022/12/21 06:25:04;;;;;;;51.73;25.80;;;;;;;6.88;59.69;100435.83;1747544;82;21241;-65
2022/12/21 10:10:06;;;;;;;60.10;28.77;;;;;;;4.17;77.29;100382.41;1836227;76;22591;-90
2022/12/21 10:13:01;;;;;;;65.17;30.50;;;;;;;6.50;66.57;100382.80;1737039;77;21039;-91
2022/12/21 10:15:59;;;;;;;62.83;29.55;;;;;;;7.17;62.49;100377.27;1747073;78;21143;-91
2022/12/21 10:18:37;;;;;;;71.37;30.85;;;;;;;7.41;61.88;100377.22;1708698;83;21058;-90
2022/12/21 10:29:56;;;;;;;68.78;29.80;;;;;;;10.09;56.30;100376.13;1747170;80;21100;-91
2022/12/21 10:32:30;;;;;;;55.38;28.55;;;;;;;11.76;49.86;100361.62;1736002;80;21704;-91
2022/12/21 10:35:21;;;;;;;52.35;27.22;;;;;;;12.71;47.81;100352.53;1735971;81;21021;-89
2022/12/21 10:37:53;;;;;;;55.00;27.80;;;;;;;13.27;47.00;100347.48;1739779;80;21076;-89
2022/12/21 10:40:27;;;;;;;49.75;25.82;;;;;;;13.66;42.74;100354.58;1748252;80;21275;-88
2022/12/21 10:43:10;;;;;;;46.30;24.25;;;;;;;14.45;42.25;100345.47;1715472;82;21013;-88
2022/12/21 10:45:40;;;;;;;45.67;24.63;;;;;;;14.71;39.14;100350.44;1699517;82;20946;-88
2022/12/21 10:48:12;;;;;;;53.98;27.37;;;;;;;14.17;39.11;100345.09;1674113;83;21121;-89
2022/12/21 10:50:48;;;;;;;61.90;32.58;;;;;;;14.78;37.46;100338.58;1643783;84;21037;-88
2022/12/21 10:53:37;;;;;;;64.27;31.27;;;;;;;13.90;39.40;100334.91;1669991;83;21100;-87
2022/12/21 10:56:13;;;;;;;57.27;31.23;;;;;;;14.09;38.35;100328.73;1674462;84;21109;-91
2022/12/21 10:58:45;;;;;;;56.90;31.37;;;;;;;13.27;40.39;100331.62;1665765;83;21768;-89
2022/12/21 11:01:25;;;;;;;63.30;34.35;;;;;;;13.56;39.49;100327.22;1644671;84;21644;-89
2022/12/21 11:04:25;;;;;;;66.83;34.13;;;;;;;13.49;39.32;100320.50;1669149;83;21165;-89
2022/12/21 11:06:59;;;;;;;60.20;32.78;;;;;;;13.01;40.49;100322.59;1673314;83;22269;-89
2022/12/21 11:09:37;;;;;;;56.65;31.62;;;;;;;12.97;40.63;100322.33;1728951;81;21057;-90
2022/12/21 11:12:21;;;;;;;55.88;29.52;;;;;;;12.98;40.39;100320.56;1702651;80;21152;-90
2022/12/21 11:14:50;;;;;;;59.95;28.65;;;;;;;12.71;39.39;100326.11;1703615;82;21077;-87
2022/12/21 11:17:29;;;;;;;57.73;30.57;;;;;;;12.35;40.23;100322.78;1707323;83;21042;-90
2022/12/21 11:20:21;;;;;;;73.25;36.98;;;;;;;11.80;41.71;100328.04;1706410;83;21070;-89
2022/12/21 11:22:52;;;;;;;74.12;37.60;;;;;;;11.54;41.50;100325.95;1700938;82;21619;-88
2022/12/21 11:25:25;;;;;;;86.00;42.50;;;;;;;11.40;42.43;100337.02;1703229;83;21136;-90
2022/12/21 11:27:59;;;;;;;96.95;47.00;;;;;;;11.07;43.14;100333.38;1679451;84;21086;-91
2022/12/21 11:30:33;;;;;;;83.87;44.08;;;;;;;10.49;43.09;100330.14;1705081;83;21098;-91
2022/12/21 11:33:00;;;;;;;80.70;39.05;;;;;;;10.78;44.11;100328.27;1701200;83;21085;-90
2022/12/21 11:35:31;;;;;;;90.20;43.48;;;;;;;10.84;44.29;100323.66;1704602;83;21061;-92
2022/12/21 11:38:13;;;;;;;;;;;;;;;10.88;43.86;100325.27;1706887;83;21213;-90
2022/12/21 11:40:55;;;;;;;63.60;33.53;;;;;;;10.82;44.62;100319.36;1690311;83;20151;-90
2022/12/21 11:43:22;;;;;;;74.55;38.40;;;;;;;10.97;44.01;100316.16;1723253;81;21062;-90
2022/12/21 11:46:02;;;;;;;67.65;34.05;;;;;;;11.27;43.65;100317.28;1722032;80;21024;-91
2022/12/21 11:48:47;;;;;;;80.80;38.00;;;;;;;11.32;44.35;100321.95;1736729;79;21034;-89
2022/12/21 11:51:31;;;;;;;75.47;40.88;;;;;;;11.61;43.19;100316.02;1728218;81;21199;-89
2022/12/21 11:54:09;;;;;;;68.55;35.15;;;;;;;12.25;42.28;100312.66;1699895;81;21197;-90
2022/12/21 11:56:59;;;;;;;75.28;37.40;;;;;;;12.13;43.14;100316.66;1720523;79;21227;-89
2022/12/21 12:00:07;;;;;;;72.50;36.13;;;;;;;12.44;41.77;100319.34;1712144;80;21010;-88
2022/12/21 12:03:32;;;;;;;68.35;35.10;;;;;;;12.55;40.56;100312.69;1727222;80;21168;-64
2022/12/21 12:06:23;;;;;;;63.52;34.00;;;;;;;12.70;41.13;100296.66;1773067;78;21398;-65
2022/12/21 12:09:13;;;;;;;70.30;36.08;;;;;;;13.85;40.16;100306.01;1805455;77;21079;-64
2022/12/21 12:12:01;;;;;;;73.77;36.00;;;;;;;14.63;38.33;100303.09;1792738;79;21092;-63
2022/12/21 12:14:59;;;;;;;67.08;36.05;;;;;;;14.95;36.59;100308.53;1796687;78;21061;-65
2022/12/21 12:17:37;;;;;;;56.63;31.93;;;;;;;15.43;35.05;100301.55;1772759;79;21101;-65
2022/12/21 12:20:15;;;;;;;61.20;33.13;;;;;;;15.38;35.00;100303.60;1776335;80;22294;-64
2022/12/21 12:22:57;;;;;;;58.83;33.18;;;;;;;15.19;34.52;100308.58;1779077;80;21010;-64
2022/12/21 12:26:10;;;;;;;56.65;31.42;;;;;;;15.02;34.31;100307.27;1775415;80;21045;-65
2022/12/21 12:29:03;;;;;;;59.88;32.30;;;;;;;15.15;35.46;100309.67;1775201;80;21030;-65
2022/12/21 12:32:09;;;;;;;57.50;32.95;;;;;;;15.14;35.06;100311.95;1772137;79;21549;-65
2022/12/21 12:35:03;;;;;;;62.40;32.30;;;;;;;15.37;34.02;100308.50;1777581;80;22047;-66
2022/12/21 12:38:14;;;;;;;64.53;30.92;;;;;;;15.68;33.63;100304.56;1780873;79;21576;-65
2022/12/21 12:41:25;;;;;;;60.43;31.93;;;;;;;15.05;35.31;100304.48;1781470;80;21644;-65
2022/12/21 12:44:23;;;;;;;66.22;34.38;;;;;;;15.54;34.26;100299.17;1775365;79;21026;-65
2022/12/21 12:47:11;;;;;;;58.10;33.53;;;;;;;15.66;33.80;100308.25;1770483;80;21010;-65
2022/12/21 12:50:21;;;;;;;56.02;32.75;;;;;;;15.25;33.38;100310.91;1769687;80;21986;-66
2022/12/21 12:53:18;;;;;;;54.13;30.02;;;;;;;14.71;34.84;100306.22;1766081;80;21007;-65
2022/12/21 12:56:05;;;;;;;66.87;35.30;;;;;;;14.42;35.54;100307.66;1768860;80;21029;-66
2022/12/21 12:58:47;;;;;;;55.48;28.87;;;;;;;14.39;35.03;100313.12;1774269;80;21522;-65
2022/12/21 13:01:31;;;;;;;64.15;32.63;;;;;;;14.15;35.10;100316.05;1776974;79;21029;-65
2022/12/21 13:04:25;;;;;;;65.15;34.40;;;;;;;14.20;35.78;100303.91;1772234;80;21144;-66
2022/12/21 13:07:27;;;;;;;61.25;34.60;;;;;;;13.96;35.49;100298.86;1776948;79;21113;-65
2022/12/21 13:10:19;;;;;;;63.02;32.48;;;;;;;13.47;36.87;100306.48;1774451;79;20998;-65
2022/12/21 13:12:55;;;;;;;64.72;32.20;;;;;;;13.79;37.68;100296.17;1774785;79;21024;-65
2022/12/21 13:15:44;;;;;;;57.30;31.12;;;;;;;13.97;36.72;100293.97;1771946;80;21075;-67
2022/12/21 13:18:19;;;;;;;56.73;30.05;;;;;;;13.60;36.04;100295.72;1741772;80;21134;-67
2022/12/21 13:20:47;;;;;;;58.60;29.48;;;;;;;12.99;37.77;100286.58;1755164;81;21036;-65
2022/12/21 13:23:41;;;;;;;68.85;34.23;;;;;;;12.87;37.74;100277.88;1759095;81;21173;-67
2022/12/21 13:26:30;;;;;;;64.50;32.50;;;;;;;12.31;38.16;100278.94;1742404;81;21099;-66
2022/12/21 13:29:23;;;;;;;61.00;32.40;;;;;;;11.91;39.65;100278.38;1770402;80;21059;-66
2022/12/21 13:31:54;;;;;;;62.35;31.68;;;;;;;11.68;39.93;100279.25;1743907;80;21165;-66
2022/12/21 13:34:29;;;;;;;62.40;32.85;;;;;;;11.15;40.67;100284.80;1757646;80;22091;-66
2022/12/21 13:36:56;;;;;;;64.45;33.05;;;;;;;10.90;42.72;100291.83;1722926;80;21677;-64
2022/12/21 13:39:34;;;;;;;71.90;35.92;;;;;;;10.62;42.91;100294.55;1750441;81;21114;-66
2022/12/21 13:42:08;;;;;;;63.35;28.95;;;;;;;10.70;42.75;100289.89;1778323;80;21039;-66
2022/12/21 13:45:02;;;;;;;60.58;29.85;;;;;;;10.33;44.37;100284.15;1762072;80;21108;-65
2022/12/21 13:47:31;;;;;;;72.58;36.00;;;;;;;10.23;44.11;100279.16;1780410;80;21107;-65
2022/12/21 13:50:37;;;;;;;66.37;33.60;;;;;;;10.11;44.57;100281.34;1755494;80;21062;-66
2022/12/21 13:53:38;;;;;;;67.80;32.60;;;;;;;10.18;44.65;100277.60;1733776;80;21634;-65
2022/12/21 13:56:30;;;;;;;67.30;34.33;;;;;;;9.71;45.61;100287.86;1729991;80;21035;-65
2022/12/21 13:59:23;;;;;;;70.87;35.35;;;;;;;9.49;45.89;100283.27;1752066;80;21235;-66
2022/12/21 14:02:05;;;;;;;55.35;27.50;;;;;;;9.45;46.63;100283.83;1716919;82;21476;-65
2022/12/21 14:04:53;;;;;;;61.95;31.23;;;;;;;9.44;46.99;100283.41;1715008;82;21056;-64
2022/12/21 14:07:27;;;;;;;70.17;34.83;;;;;;;9.60;46.40;100283.80;1740619;81;21090;-66
2022/12/21 14:10:15;;;;;;;74.30;34.73;;;;;;;9.99;46.20;100279.98;1738439;81;21114;-66
2022/12/21 14:13:08;;;;;;;62.00;32.90;;;;;;;9.80;46.95;100283.63;1748125;80;21253;-65
2022/12/21 14:15:43;;;;;;;77.97;38.98;;;;;;;9.24;47.54;100272.61;1777824;79;21186;-66
2022/12/21 14:18:15;;;;;;;67.58;34.80;;;;;;;9.14;47.56;100279.05;1779968;80;21034;-65
2022/12/21 14:20:42;;;;;;;71.22;35.45;;;;;;;9.15;48.46;100283.39;1774928;80;21065;-65
2022/12/21 14:23:29;;;;;;;77.00;36.23;;;;;;;9.26;47.75;100276.06;1769112;80;21053;-64
2022/12/21 14:25:56;;;;;;;66.05;34.18;;;;;;;8.94;48.08;100275.20;1769417;80;21787;-64
2022/12/21 14:28:45;;;;;;;63.95;33.50;;;;;;;8.98;49.07;100274.23;1773906;79;21029;-65
2022/12/21 14:31:17;;;;;;;69.70;34.38;;;;;;;8.98;48.40;100262.41;1777608;80;21045;-65
2022/12/21 14:33:50;;;;;;;68.07;32.65;;;;;;;8.74;48.94;100264.39;1781326;80;21101;-65
2022/12/21 14:36:27;;;;;;;71.25;33.35;;;;;;;8.78;49.45;100266.03;1776980;80;20981;-64
2022/12/21 14:39:13;;;;;;;62.23;30.60;;;;;;;8.55;49.40;100254.84;1777515;80;21157;-66
2022/12/21 14:41:41;;;;;;;66.80;30.68;;;;;;;8.47;49.84;100253.75;1780427;79;20998;-66
2022/12/21 14:44:21;;;;;;;73.10;32.48;;;;;;;9.05;48.72;100256.98;1769608;80;22217;-65
2022/12/21 14:47:07;;;;;;;59.38;28.27;;;;;;;8.73;48.73;100252.18;1781936;80;21089;-65
2022/12/21 14:49:36;;;;;;;52.25;25.92;;;;;;;8.71;49.40;100252.67;1780095;79;21547;-65
2022/12/21 14:52:31;;;;;;;64.65;29.48;;;;;;;8.93;49.49;100255.12;1780030;79;21161;-65
2022/12/21 14:55:03;;;;;;;59.10;28.42;;;;;;;8.34;49.87;100247.91;1779191;79;21003;-66
2022/12/21 14:57:40;;;;;;;60.43;27.58;;;;;;;7.93;51.19;100255.50;1777386;79;21086;-65
2022/12/21 15:00:22;;;;;;;60.88;29.60;;;;;;;8.26;51.34;100253.82;1779196;79;21080;-67
2022/12/21 18:29:35;;;;;;;84.20;37.45;;;;;;;3.47;83.04;100151.91;1761278;77;90114;-63
2022/12/21 18:32:01;;;;;;;78.35;36.90;;;;;;;4.33;77.05;100159.80;1687070;83;21148;-66
2022/12/21 18:34:28;;;;;;;73.00;35.45;;;;;;;4.97;74.23;100145.09;1690065;83;22190;-64
2022/12/21 18:36:55;;;;;;;82.78;37.48;;;;;;;5.18;72.11;100149.14;1684519;83;21094;-66
2022/12/21 18:39:21;;;;;;;80.17;37.10;;;;;;;5.49;70.73;100142.14;1694110;83;21088;-66
2022/12/21 19:06:59;;;;;;;70.60;38.83;;;;;;;6.18;66.51;100120.05;1852250;76;29038;-66
2022/12/21 19:09:26;;;;;;;71.82;34.78;;;;;;;6.40;65.42;100120.50;1825436;78;21060;-66
2022/12/21 19:11:54;;;;;;;73.45;34.27;;;;;;;6.61;64.16;100127.05;1788865;80;21151;-67
2022/12/21 19:14:22;;;;;;;73.75;35.78;;;;;;;6.78;63.62;100118.83;1788591;79;21004;-67
2022/12/21 19:16:53;;;;;;;77.78;37.88;;;;;;;6.55;63.98;100125.00;1800083;79;21007;-67
2022/12/21 19:19:23;;;;;;;;;;;;;;;6.59;63.02;100120.98;1802937;79;21039;-66
2022/12/21 19:21:52;;;;;;;92.95;40.83;;;;;;;6.66;62.50;100130.88;1799049;79;20161;-66
2022/12/21 19:24:23;;;;;;;97.53;42.40;;;;;;;6.68;62.34;100133.02;1800106;79;21024;-65
2022/12/21 19:26:50;;;;;;;88.97;40.98;;;;;;;7.07;61.57;100125.19;1799664;78;21044;-66
2022/12/21 19:29:19;;;;;;;84.37;36.88;;;;;;;7.59;60.31;100129.17;1800631;79;21039;-66
2022/12/21 19:31:46;;;;;;;86.53;38.08;;;;;;;7.33;60.53;100135.05;1799634;79;21043;-66
2022/12/21 19:34:13;;;;;;;84.10;39.50;;;;;;;6.87;61.18;100129.09;1800205;79;21594;-66
2022/12/21 19:36:44;;;;;;;87.30;38.85;;;;;;;6.86;60.95;100130.00;1799707;79;21547;-66
2022/12/21 19:39:39;;;;;;;83.35;37.90;;;;;;;7.26;60.16;100129.09;1799996;79;21044;-66
2022/12/21 19:42:18;;;;;;;79.30;35.23;;;;;;;6.40;62.79;100125.73;1799815;79;21028;-66
2022/12/21 19:44:44;;;;;;;84.03;34.60;;;;;;;6.55;62.63;100128.47;1800113;79;21083;-66
2022/12/21 19:47:17;;;;;;;76.42;36.90;;;;;;;5.94;63.91;100131.84;1800051;79;21551;-66
2022/12/21 19:49:45;;;;;;;73.28;35.38;;;;;;;5.84;63.88;100128.50;1800235;79;21078;-66
2022/12/21 19:52:12;;;;;;;73.33;36.30;;;;;;;6.35;63.47;100126.28;1799647;79;21464;-66
2022/12/21 19:54:39;;;;;;;74.65;34.38;;;;;;;6.76;62.12;100121.92;1799978;79;21027;-66
2022/12/21 19:57:09;;;;;;;68.30;32.67;;;;;;;6.73;62.11;100126.77;1780587;79;21111;-66
2022/12/21 19:59:35;;;;;;;75.45;33.58;;;;;;;6.62;63.31;100133.13;1767548;81;21087;-66
2022/12/21 20:02:03;;;;;;;75.72;34.33;;;;;;;6.61;61.96;100136.66;1768209;81;21846;-67
2022/12/21 20:04:30;;;;;;;69.25;32.85;;;;;;;7.14;60.79;100137.25;1768302;81;21023;-67
2022/12/21 20:06:57;;;;;;;78.28;36.55;;;;;;;6.77;61.73;100139.37;1755000;80;22090;-67
2022/12/21 20:09:27;;;;;;;76.33;32.80;;;;;;;6.86;61.12;100135.24;1719190;83;21350;-67
2022/12/21 20:11:57;;;;;;;79.65;34.45;;;;;;;7.19;60.32;100134.06;1719176;83;21135;-66
2022/12/21 20:14:37;;;;;;;80.95;36.10;;;;;;;7.25;60.37;100135.24;1710271;83;21258;-67
2022/12/21 20:17:18;;;;;;;81.02;33.63;;;;;;;6.86;60.67;100133.08;1701099;84;21060;-66
2022/12/21 20:19:44;;;;;;;71.50;33.90;;;;;;;6.84;61.41;100131.79;1700657;84;21045;-67
2022/12/21 20:22:12;;;;;;;83.80;36.58;;;;;;;7.19;60.18;100128.83;1700879;84;21120;-67
2022/12/21 20:24:41;;;;;;;79.92;36.05;;;;;;;7.34;59.62;100124.55;1721129;83;21100;-67
2022/12/21 20:27:19;;;;;;;75.75;36.38;;;;;;;7.52;59.67;100117.12;1708518;84;21770;-67
